createdAt,value
2022-12-31T00:00:08.591Z,62.69
2022-12-31T00:02:36.060Z,61.75
2022-12-31T00:05:03.502Z,62.37
2022-12-31T00:07:30.401Z,61.38
2022-12-31T00:09:56.919Z,62.64
2022-12-31T00:12:23.533Z,63.65
2022-12-31T00:14:50.417Z,65.31
2022-12-31T00:17:16.919Z,64.46
2022-12-31T00:19:43.699Z,64.40
2022-12-31T00:22:10.549Z,64.23
2022-12-31T00:24:37.049Z,64.05
2022-12-31T00:27:03.583Z,65.03
2022-12-31T00:29:30.511Z,64.77
2022-12-31T00:31:57.017Z,63.95
2022-12-31T00:34:24.033Z,63.58
2022-12-31T00:36:50.569Z,64.13
2022-12-31T00:39:17.058Z,64.56
2022-12-31T00:41:44.145Z,63.88
2022-12-31T00:44:11.760Z,63.67
2022-12-31T00:49:04.464Z,63.70
2022-12-31T00:51:31.276Z,64.06
2022-12-31T00:53:58.388Z,65.08
2022-12-31T00:56:28.149Z,63.75
2022-12-31T00:58:54.960Z,63.53
2022-12-31T01:01:27.034Z,62.83
2022-12-31T01:03:57.961Z,63.23
2022-12-31T01:06:24.660Z,63.98
2022-12-31T01:08:52.124Z,62.68
2022-12-31T01:11:19.715Z,62.79
2022-12-31T01:13:47.590Z,63.63
2022-12-31T01:16:15.951Z,63.41
2022-12-31T01:18:42.512Z,62.48
2022-12-31T01:21:11.120Z,63.30
2022-12-31T01:23:37.792Z,62.12
2022-12-31T01:26:07.250Z,61.86
2022-12-31T01:28:34.226Z,62.82
2022-12-31T01:31:07.257Z,63.87
2022-12-31T01:33:33.978Z,63.35
2022-12-31T01:36:09.790Z,63.24
2022-12-31T01:38:36.992Z,62.72
2022-12-31T01:41:04.503Z,61.41
2022-12-31T01:44:12.726Z,62.09
2022-12-31T01:46:56.295Z,61.68
2022-12-31T01:49:36.060Z,63.90
2022-12-31T01:52:30.610Z,63.56
2022-12-31T01:55:14.979Z,63.80
2022-12-31T01:57:44.136Z,65.12
2022-12-31T02:00:11.357Z,63.62
2022-12-31T02:02:37.940Z,64.37
2022-12-31T02:05:12.766Z,63.74
2022-12-31T02:07:39.617Z,63.24
2022-12-31T02:10:06.340Z,64.69
2022-12-31T02:12:32.906Z,64.42
2022-12-31T02:14:59.757Z,65.44
2022-12-31T02:17:38.344Z,65.86
2022-12-31T02:20:20.936Z,65.64
2022-12-31T02:23:06.338Z,66.44
2022-12-31T02:25:57.659Z,66.33
2022-12-31T02:28:46.112Z,66.13
2022-12-31T02:31:26.251Z,65.78
2022-12-31T02:34:10.699Z,67.33
2022-12-31T02:36:43.014Z,67.08
2022-12-31T02:39:12.449Z,67.06
2022-12-31T02:41:52.384Z,68.58
2022-12-31T02:44:29.337Z,67.12
2022-12-31T02:47:04.996Z,68.19
2022-12-31T02:50:01.055Z,67.67
2022-12-31T02:52:52.697Z,65.99
2022-12-31T02:55:32.782Z,67.95
2022-12-31T02:58:51.334Z,67.58
2022-12-31T03:01:44.501Z,66.82
2022-12-31T03:04:32.577Z,65.95
2022-12-31T03:07:07.791Z,67.95
2022-12-31T03:09:35.405Z,67.66
2022-12-31T03:12:22.750Z,66.54
2022-12-31T03:14:49.961Z,66.26
2022-12-31T03:17:16.952Z,65.25
2022-12-31T03:20:03.163Z,64.07
2022-12-31T03:22:30.092Z,63.75
2022-12-31T03:25:22.740Z,63.83
2022-12-31T03:27:50.113Z,63.06
2022-12-31T03:30:18.441Z,62.79
2022-12-31T03:32:46.833Z,64.34
2022-12-31T03:38:03.516Z,65.49
2022-12-31T03:40:31.257Z,65.82
2022-12-31T03:42:57.984Z,65.12
2022-12-31T03:45:24.519Z,65.34
2022-12-31T03:47:51.295Z,65.73
2022-12-31T03:50:18.722Z,64.71
2022-12-31T03:52:46.018Z,65.54
2022-12-31T03:55:13.259Z,64.75
2022-12-31T03:57:40.139Z,64.94
2022-12-31T04:00:10.218Z,64.15
2022-12-31T04:02:37.213Z,63.57
2022-12-31T04:05:04.683Z,62.71
2022-12-31T04:07:31.317Z,63.55
2022-12-31T04:09:58.502Z,63.69
2022-12-31T04:12:25.908Z,63.20
2022-12-31T04:14:52.695Z,63.06
2022-12-31T04:17:19.846Z,63.30
2022-12-31T04:19:46.696Z,62.78
2022-12-31T04:22:13.538Z,62.24
2022-12-31T04:24:41.581Z,62.01
2022-12-31T04:27:08.491Z,61.39
2022-12-31T04:29:35.804Z,61.04
2022-12-31T04:32:03.301Z,61.32
2022-12-31T04:34:29.961Z,61.55
2022-12-31T04:36:56.644Z,60.54
2022-12-31T04:39:24.444Z,60.85
2022-12-31T04:41:51.002Z,59.62
2022-12-31T04:44:18.153Z,59.30
2022-12-31T04:46:44.679Z,60.26
2022-12-31T04:49:12.201Z,60.85
2022-12-31T04:51:39.477Z,59.87
2022-12-31T04:54:06.842Z,60.28
2022-12-31T04:56:36.560Z,60.58
2022-12-31T04:59:05.179Z,60.64
2022-12-31T05:01:33.289Z,61.64
2022-12-31T05:04:00.183Z,61.82
2022-12-31T05:06:26.737Z,62.44
2022-12-31T05:08:53.348Z,60.84
2022-12-31T05:11:19.858Z,60.89
2022-12-31T05:13:46.767Z,60.27
2022-12-31T05:16:13.446Z,59.56
2022-12-31T05:18:40.466Z,59.37
2022-12-31T05:21:07.269Z,60.30
2022-12-31T05:23:34.938Z,59.84
2022-12-31T05:26:01.843Z,59.56
2022-12-31T05:28:28.859Z,59.33
2022-12-31T05:30:55.627Z,59.52
2022-12-31T05:33:23.083Z,60.17
2022-12-31T05:35:50.506Z,60.22
2022-12-31T05:38:18.585Z,60.63
2022-12-31T05:40:45.231Z,60.33
2022-12-31T05:43:12.016Z,60.28
2022-12-31T05:45:39.422Z,59.65
2022-12-31T05:48:06.472Z,59.91
2022-12-31T05:50:33.021Z,60.15
2022-12-31T05:53:04.272Z,59.92
2022-12-31T05:55:30.949Z,60.14
2022-12-31T05:57:57.760Z,59.57
2022-12-31T06:00:24.283Z,59.39
2022-12-31T06:02:50.851Z,59.69
2022-12-31T06:05:22.454Z,59.74
2022-12-31T06:07:52.362Z,60.12
2022-12-31T06:10:18.874Z,59.86
2022-12-31T06:12:45.647Z,60.68
2022-12-31T06:15:12.238Z,60.59
2022-12-31T06:17:38.815Z,61.57
2022-12-31T06:20:12.182Z,63.28
2022-12-31T06:22:40.447Z,63.98
2022-12-31T06:25:07.397Z,63.82
2022-12-31T06:27:34.596Z,63.41
2022-12-31T06:30:01.099Z,63.56
2022-12-31T06:32:28.589Z,63.37
2022-12-31T06:34:55.178Z,63.32
2022-12-31T06:37:21.749Z,62.95
2022-12-31T06:39:48.799Z,63.02
2022-12-31T06:42:15.321Z,63.56
2022-12-31T06:44:41.828Z,63.36
2022-12-31T06:47:08.324Z,63.77
2022-12-31T06:49:34.904Z,63.99
2022-12-31T06:52:01.768Z,64.48
2022-12-31T06:54:28.846Z,65.49
2022-12-31T06:56:55.660Z,65.38
2022-12-31T06:59:27.937Z,66.61
2022-12-31T07:02:05.416Z,67.21
2022-12-31T07:04:49.624Z,66.56
2022-12-31T07:07:34.288Z,64.64
2022-12-31T07:10:18.029Z,67.18
2022-12-31T07:13:01.193Z,67.70
2022-12-31T07:15:51.710Z,67.85
2022-12-31T07:18:30.356Z,67.00
2022-12-31T07:20:59.384Z,65.23
2022-12-31T07:23:26.109Z,65.56
2022-12-31T07:26:06.752Z,65.15
2022-12-31T07:28:59.699Z,64.88
2022-12-31T07:31:42.201Z,65.21
2022-12-31T07:34:25.223Z,66.07
2022-12-31T07:37:06.274Z,66.79
2022-12-31T07:39:45.363Z,66.50
2022-12-31T07:42:11.851Z,65.76
2022-12-31T07:45:01.022Z,65.26
2022-12-31T07:47:29.540Z,65.39
2022-12-31T07:49:56.770Z,65.37
2022-12-31T07:52:23.698Z,64.85
2022-12-31T07:54:50.486Z,64.82
2022-12-31T07:57:18.888Z,64.89
2022-12-31T08:00:03.846Z,64.56
2022-12-31T08:02:56.390Z,65.54
2022-12-31T08:05:52.336Z,64.72
2022-12-31T08:08:28.065Z,66.08
2022-12-31T08:11:16.231Z,65.59
2022-12-31T08:13:43.805Z,65.44
2022-12-31T08:16:13.400Z,64.84
2022-12-31T08:18:40.874Z,64.75
2022-12-31T08:21:22.488Z,63.91
2022-12-31T08:24:24.806Z,64.05
2022-12-31T08:27:09.712Z,63.97
2022-12-31T08:29:49.732Z,64.75
2022-12-31T08:32:31.025Z,64.86
2022-12-31T08:35:06.691Z,65.20
2022-12-31T08:37:51.053Z,66.17
2022-12-31T08:40:46.015Z,65.14
2022-12-31T08:43:32.946Z,64.73
2022-12-31T08:46:00.254Z,64.83
2022-12-31T08:48:40.814Z,64.48
2022-12-31T08:51:14.600Z,65.52
2022-12-31T08:53:41.339Z,65.75
2022-12-31T08:56:21.508Z,65.31
2022-12-31T08:59:04.260Z,64.53
2022-12-31T09:01:44.332Z,64.09
2022-12-31T09:04:27.414Z,64.53
2022-12-31T09:07:02.024Z,63.71
2022-12-31T09:09:40.282Z,64.97
2022-12-31T09:12:25.827Z,63.59
2022-12-31T09:15:13.199Z,63.50
2022-12-31T09:17:44.338Z,63.57
2022-12-31T09:20:42.927Z,63.51
2022-12-31T09:23:12.748Z,63.75
2022-12-31T09:26:08.107Z,63.78
2022-12-31T09:28:56.574Z,65.45
2022-12-31T09:31:49.823Z,64.64
2022-12-31T09:34:26.240Z,65.27
2022-12-31T09:37:02.731Z,63.59
2022-12-31T09:39:40.508Z,62.87
2022-12-31T09:42:49.068Z,63.10
2022-12-31T09:45:42.405Z,62.27
2022-12-31T09:48:27.717Z,61.15
2022-12-31T09:51:26.049Z,61.01
2022-12-31T09:54:15.593Z,61.52
2022-12-31T09:57:08.556Z,61.21
2022-12-31T09:59:46.315Z,61.81
2022-12-31T10:02:33.212Z,62.76
2022-12-31T10:05:18.787Z,63.30
2022-12-31T10:08:01.226Z,64.80
2022-12-31T10:10:39.959Z,64.72
2022-12-31T10:13:43.577Z,65.73
2022-12-31T10:16:12.881Z,66.46
2022-12-31T10:18:57.299Z,66.21
2022-12-31T10:21:45.155Z,68.06
2022-12-31T10:24:36.618Z,66.41
2022-12-31T10:27:09.061Z,67.43
2022-12-31T10:29:48.015Z,67.75
2022-12-31T10:32:29.400Z,67.00
2022-12-31T10:35:38.662Z,68.88
2022-12-31T10:38:13.908Z,68.97
2022-12-31T10:41:14.309Z,69.19
2022-12-31T10:44:24.297Z,68.61
2022-12-31T10:47:11.915Z,67.75
2022-12-31T10:49:47.303Z,69.09
2022-12-31T10:52:52.824Z,68.42
2022-12-31T10:56:03.987Z,67.95
2022-12-31T10:58:56.089Z,67.57
2022-12-31T11:01:35.383Z,69.33
2022-12-31T11:04:31.614Z,67.95
2022-12-31T11:07:29.538Z,67.14
2022-12-31T11:10:33.952Z,69.25
2022-12-31T11:13:21.911Z,69.30
2022-12-31T11:16:10.129Z,68.74
2022-12-31T11:18:52.808Z,67.45
2022-12-31T11:21:29.522Z,67.40
2022-12-31T11:24:33.726Z,67.17
2022-12-31T11:27:28.580Z,66.34
2022-12-31T11:30:10.952Z,66.75
2022-12-31T11:32:57.071Z,67.15
2022-12-31T11:35:48.220Z,68.70
2022-12-31T11:38:26.120Z,68.76
2022-12-31T11:41:18.345Z,70.31
2022-12-31T11:44:13.125Z,69.09
2022-12-31T11:47:12.242Z,69.61
2022-12-31T11:50:03.507Z,68.49
2022-12-31T11:52:49.843Z,68.19
2022-12-31T11:55:27.055Z,67.95
2022-12-31T11:57:54.116Z,68.02
2022-12-31T12:00:23.594Z,67.94
2022-12-31T12:03:05.550Z,67.57
2022-12-31T12:05:35.057Z,68.47
2022-12-31T12:08:02.096Z,67.56
2022-12-31T12:10:36.585Z,68.21
2022-12-31T12:13:26.615Z,68.07
2022-12-31T12:15:58.469Z,68.40
2022-12-31T12:18:29.522Z,67.21
2022-12-31T12:21:12.030Z,68.52
2022-12-31T12:23:39.165Z,68.34
2022-12-31T12:26:07.076Z,68.12
2022-12-31T12:28:46.581Z,68.66
2022-12-31T12:31:20.774Z,68.15
2022-12-31T12:33:49.039Z,68.74
2022-12-31T12:36:18.674Z,67.63
2022-12-31T12:38:45.560Z,67.56
2022-12-31T12:41:23.418Z,68.11
2022-12-31T12:43:50.342Z,67.39
2022-12-31T12:46:48.283Z,67.01
2022-12-31T12:49:25.660Z,67.47
2022-12-31T12:52:02.972Z,66.91
2022-12-31T12:54:37.971Z,67.80
2022-12-31T12:57:20.587Z,66.58
2022-12-31T13:00:01.669Z,65.93
2022-12-31T13:02:55.536Z,69.00
2022-12-31T13:05:52.322Z,68.15
2022-12-31T13:08:34.831Z,69.11
2022-12-31T13:11:18.171Z,68.65
2022-12-31T13:14:10.748Z,68.17
2022-12-31T13:16:51.453Z,67.77
2022-12-31T13:19:37.983Z,67.85
2022-12-31T13:22:28.538Z,67.18
2022-12-31T13:25:02.828Z,67.33
2022-12-31T13:27:38.272Z,67.85
2022-12-31T13:30:19.433Z,68.30
2022-12-31T13:33:20.556Z,67.85
2022-12-31T13:35:54.887Z,70.13
2022-12-31T13:38:27.894Z,72.63
2022-12-31T13:40:57.113Z,72.12
2022-12-31T13:43:37.258Z,71.49
2022-12-31T13:46:26.450Z,69.02
2022-12-31T13:49:01.048Z,69.98
2022-12-31T13:52:00.337Z,68.46
2022-12-31T13:54:42.436Z,68.00
2022-12-31T13:57:20.228Z,67.40
2022-12-31T13:59:54.777Z,69.31
2022-12-31T14:02:27.368Z,67.54
2022-12-31T14:05:00.171Z,67.51
2022-12-31T14:07:40.376Z,67.29
2022-12-31T14:10:17.695Z,67.00
2022-12-31T14:12:56.068Z,66.40
2022-12-31T14:15:26.591Z,67.31
2022-12-31T14:18:10.896Z,67.05
2022-12-31T14:21:01.905Z,66.35
2022-12-31T14:23:42.997Z,67.48
2022-12-31T14:26:22.706Z,67.46
2022-12-31T14:29:08.680Z,67.25
2022-12-31T14:32:01.398Z,66.36
2022-12-31T14:34:49.841Z,65.13
2022-12-31T14:37:41.234Z,64.99
2022-12-31T14:40:32.556Z,65.56
2022-12-31T14:43:37.218Z,65.77
2022-12-31T14:46:10.517Z,65.70
2022-12-31T14:48:43.586Z,66.51
2022-12-31T14:51:13.051Z,66.60
2022-12-31T14:53:40.031Z,65.52
2022-12-31T14:56:26.922Z,65.80
2022-12-31T14:58:59.399Z,64.42
2022-12-31T15:01:26.387Z,64.87
2022-12-31T15:03:58.060Z,65.59
2022-12-31T15:06:24.651Z,64.69
2022-12-31T15:09:12.274Z,65.31
2022-12-31T15:12:14.903Z,65.53
2022-12-31T15:14:50.151Z,66.42
2022-12-31T15:17:38.144Z,64.70
2022-12-31T15:20:23.221Z,63.47
2022-12-31T15:22:51.991Z,63.31
2022-12-31T15:25:32.694Z,64.66
2022-12-31T15:28:06.933Z,64.78
2022-12-31T15:30:48.500Z,65.82
2022-12-31T15:33:30.811Z,65.99
2022-12-31T15:36:08.765Z,68.02
2022-12-31T15:38:37.997Z,67.22
2022-12-31T15:41:15.757Z,67.92
2022-12-31T15:43:54.772Z,68.11
2022-12-31T15:46:29.146Z,69.35
2022-12-31T15:49:05.793Z,68.98
2022-12-31T15:52:03.390Z,68.01
2022-12-31T15:54:40.923Z,69.23
2022-12-31T15:57:16.102Z,68.88
2022-12-31T15:59:43.718Z,68.31
2022-12-31T16:02:23.745Z,68.40
2022-12-31T16:04:51.838Z,68.16
2022-12-31T16:07:18.831Z,68.10
2022-12-31T16:09:55.084Z,67.07
2022-12-31T16:12:32.687Z,69.10
2022-12-31T16:15:01.745Z,67.95
2022-12-31T16:17:36.321Z,66.41
2022-12-31T16:20:23.577Z,67.08
2022-12-31T16:22:57.412Z,66.72
2022-12-31T16:25:33.401Z,65.90
2022-12-31T16:28:02.759Z,65.73
2022-12-31T16:30:32.423Z,65.09
2022-12-31T16:33:01.227Z,64.11
2022-12-31T16:35:36.216Z,65.10
2022-12-31T16:38:19.452Z,66.61
2022-12-31T16:41:01.519Z,64.17
2022-12-31T16:43:31.081Z,64.61
2022-12-31T16:46:07.228Z,63.84
2022-12-31T16:48:34.012Z,64.97
2022-12-31T16:51:01.208Z,65.81
2022-12-31T16:53:29.829Z,65.66
2022-12-31T16:56:01.849Z,64.98
2022-12-31T16:58:37.378Z,66.11
2022-12-31T17:01:13.146Z,63.67
2022-12-31T17:03:44.140Z,63.59
2022-12-31T17:06:18.781Z,64.58
2022-12-31T17:08:48.408Z,64.83
2022-12-31T17:11:34.709Z,63.38
2022-12-31T17:14:07.924Z,63.34
2022-12-31T17:16:37.366Z,62.41
2022-12-31T17:19:04.238Z,62.31
2022-12-31T17:21:32.107Z,62.41
2022-12-31T17:24:05.947Z,64.40
2022-12-31T17:26:36.019Z,63.27
2022-12-31T17:29:05.750Z,63.22
2022-12-31T17:31:37.791Z,64.12
2022-12-31T17:34:06.073Z,63.19
2022-12-31T17:36:32.739Z,62.49
2022-12-31T17:39:20.114Z,61.39
2022-12-31T17:41:49.367Z,60.40
2022-12-31T17:44:21.193Z,62.39
2022-12-31T17:46:49.862Z,62.48
2022-12-31T17:49:16.516Z,61.82
2022-12-31T17:51:47.509Z,60.87
2022-12-31T17:54:18.661Z,60.72
2022-12-31T17:59:17.452Z,60.25
2022-12-31T18:01:44.365Z,61.77
2022-12-31T18:04:13.101Z,60.72
2022-12-31T18:06:39.974Z,60.21
2022-12-31T18:09:06.776Z,60.93
2022-12-31T18:11:36.126Z,60.69
2022-12-31T18:14:03.584Z,60.35
2022-12-31T18:16:30.316Z,59.78
2022-12-31T18:18:59.507Z,60.07
2022-12-31T18:21:32.536Z,60.31
2022-12-31T18:26:26.474Z,60.31
2022-12-31T18:28:53.369Z,60.02
2022-12-31T18:31:23.048Z,58.28
2022-12-31T18:33:51.365Z,58.97
2022-12-31T18:36:20.035Z,58.56
2022-12-31T18:38:47.260Z,58.16
2022-12-31T18:41:17.930Z,59.67
2022-12-31T18:43:45.004Z,59.99
2022-12-31T18:46:18.020Z,59.58
2022-12-31T18:48:45.413Z,59.60
2022-12-31T18:51:19.842Z,59.49
2022-12-31T18:53:47.304Z,59.87
2022-12-31T18:56:16.035Z,60.78
2022-12-31T18:58:43.221Z,60.23
2022-12-31T19:01:25.259Z,60.19
2022-12-31T19:03:52.312Z,60.41
2022-12-31T19:06:18.845Z,61.34
2022-12-31T19:08:45.363Z,60.68
2022-12-31T19:11:14.346Z,59.77
2022-12-31T19:13:41.354Z,59.59
2022-12-31T19:16:09.631Z,60.25
2022-12-31T19:18:36.245Z,59.04
2022-12-31T19:21:03.701Z,59.71
2022-12-31T19:23:30.226Z,60.04
2022-12-31T19:25:56.744Z,59.64
2022-12-31T19:28:25.381Z,61.00
2022-12-31T19:30:52.721Z,61.05
2022-12-31T19:33:20.014Z,59.88
2022-12-31T19:35:46.816Z,60.50
2022-12-31T19:38:25.090Z,59.80
2022-12-31T19:40:53.322Z,59.79
2022-12-31T19:43:22.185Z,59.97
2022-12-31T19:45:50.283Z,58.73
2022-12-31T19:48:19.532Z,58.55
2022-12-31T19:50:49.289Z,58.04
2022-12-31T19:53:18.467Z,58.75
2022-12-31T19:55:45.111Z,58.82
2022-12-31T19:58:20.530Z,57.94
2022-12-31T20:00:55.669Z,58.48
2022-12-31T20:03:24.846Z,57.14
2022-12-31T20:05:51.520Z,57.80
2022-12-31T20:08:20.585Z,57.92
2022-12-31T20:10:47.192Z,58.24
2022-12-31T20:13:13.696Z,57.91
2022-12-31T20:15:47.437Z,57.55
2022-12-31T20:18:14.249Z,57.28
2022-12-31T20:20:49.209Z,56.06
2022-12-31T20:23:18.689Z,55.94
2022-12-31T20:25:56.514Z,55.71
2022-12-31T20:28:23.997Z,57.04
2022-12-31T20:30:51.640Z,56.21
2022-12-31T20:33:19.357Z,55.51
2022-12-31T20:35:46.454Z,55.54
2022-12-31T20:38:12.971Z,55.61
2022-12-31T20:40:46.181Z,55.35
2022-12-31T20:43:14.555Z,54.31
2022-12-31T20:45:41.674Z,54.12
2022-12-31T20:48:08.402Z,54.17
2022-12-31T20:50:35.182Z,54.09
2022-12-31T20:53:02.085Z,53.62
2022-12-31T20:55:30.657Z,53.76
2022-12-31T20:57:57.184Z,52.51
2022-12-31T21:00:23.881Z,52.68
2022-12-31T21:02:58.981Z,53.41
2022-12-31T21:05:30.929Z,53.79
2022-12-31T21:07:57.542Z,53.36
2022-12-31T21:10:24.098Z,52.78
2022-12-31T21:12:53.367Z,52.39
2022-12-31T21:15:21.488Z,52.93
2022-12-31T21:17:48.045Z,52.18
2022-12-31T21:20:14.544Z,53.08
2022-12-31T21:22:41.098Z,53.04
2022-12-31T21:25:08.147Z,52.17
2022-12-31T21:27:35.434Z,51.69
2022-12-31T21:30:18.136Z,52.03
2022-12-31T21:32:45.677Z,52.55
2022-12-31T21:35:41.582Z,52.84
2022-12-31T21:38:02.577Z,51.71
2022-12-31T21:40:29.900Z,51.55
2022-12-31T21:42:56.624Z,50.76
2022-12-31T21:45:23.627Z,51.49
2022-12-31T21:48:08.877Z,51.57
2022-12-31T21:50:35.419Z,51.28
2022-12-31T21:53:01.956Z,51.34
2022-12-31T21:55:47.746Z,51.25
2022-12-31T21:58:25.711Z,50.71
2022-12-31T22:01:12.359Z,50.63
2022-12-31T22:03:39.113Z,50.59
2022-12-31T22:06:13.763Z,50.48
2022-12-31T22:08:41.901Z,50.41
2022-12-31T22:11:10.155Z,50.55
2022-12-31T22:13:37.397Z,51.05
2022-12-31T22:16:06.080Z,50.10
2022-12-31T22:18:35.406Z,51.66
2022-12-31T22:21:18.913Z,51.08
2022-12-31T22:23:52.202Z,51.21
2022-12-31T22:26:22.090Z,50.82
2022-12-31T22:28:48.823Z,50.38
2022-12-31T22:31:18.867Z,50.78
2022-12-31T22:33:45.754Z,51.10
2022-12-31T22:36:14.784Z,51.18
2022-12-31T22:38:41.700Z,50.09
2022-12-31T22:41:14.455Z,49.92
2022-12-31T22:43:45.415Z,49.94
2022-12-31T22:46:24.463Z,50.01
2022-12-31T22:48:52.946Z,50.38
2022-12-31T22:51:20.495Z,49.94
2022-12-31T22:53:47.101Z,50.89
2022-12-31T22:56:17.629Z,50.91
2022-12-31T22:58:44.638Z,49.61
2022-12-31T23:01:23.762Z,51.05
2022-12-31T23:03:52.274Z,50.90
2022-12-31T23:06:20.803Z,50.84
2022-12-31T23:09:06.132Z,49.93
2022-12-31T23:11:35.060Z,50.19
2022-12-31T23:14:20.743Z,49.80
2022-12-31T23:17:30.188Z,50.34
2022-12-31T23:20:11.752Z,50.78
2022-12-31T23:22:56.953Z,50.14
2022-12-31T23:25:23.489Z,49.20
2022-12-31T23:27:49.993Z,49.61
2022-12-31T23:30:16.657Z,50.01
2022-12-31T23:32:43.150Z,49.82
2022-12-31T23:35:10.181Z,49.72
2022-12-31T23:37:36.925Z,49.81
2022-12-31T23:40:03.797Z,50.40
2022-12-31T23:42:30.361Z,49.79
2022-12-31T23:44:56.892Z,49.66
2022-12-31T23:47:23.397Z,49.87
2022-12-31T23:49:50.031Z,49.56
2022-12-31T23:52:16.567Z,50.20
2022-12-31T23:54:43.110Z,50.15
2022-12-31T23:57:09.977Z,50.26
2022-12-31T23:59:36.865Z,50.90
